CheckWX is a tool to help pilots better visualize weather data.  It is not intended as a substitute for an official pre-flight weather briefing.

04:16:39 UTC

KCLE METAR
Cleveland-Hopkins International Airport
Cleveland, Ohio, USA
Current

26 mins ago

KCLE 270351Z 18003KT 10SM FEW100 BKN250 23/18 A3014 RMK AO2 SLP201 T02280178
Observed
Jun-27 @ 03:51 UTC
Wind
  • 180° at 3 KTS
Visibility
10 SM
Flight Rules
VFR
Cloud Levels
  • Few at 10,000' AGL
  • Broken at 25,000' AGL
Temperature
23°C / 73°F
Dewpoint
18°C / 64°F
Humidity
74%
Altimeter
30.14" Hg
Pressure
1020.62 hPa
Previous

1 hour ago

KCLE 270251Z 19003KT 10SM SCT100 SCT250 24/17 A3013 RMK AO2 SLP197 T02390172 53014
Observed
Jun-27 @ 02:51 UTC
Wind
  • 190° at 3 KTS
Visibility
10 SM
Flight Rules
VFR
Cloud Levels
  • Scattered at 10,000' AGL
  • Scattered at 25,000' AGL
Temperature
24°C / 75°F
Dewpoint
17°C / 63°F
Humidity
65%
Altimeter
30.13" Hg
Pressure
1020.32 hPa
Previous

2 hours ago

KCLE 270151Z 00000KT 10SM FEW075 SCT250 26/16 A3011 RMK AO2 SLP188 T02560156
Observed
Jun-27 @ 01:51 UTC
Visibility
10 SM
Flight Rules
VFR
Cloud Levels
  • Few at 7,500' AGL
  • Scattered at 25,000' AGL
Temperature
26°C / 79°F
Dewpoint
16°C / 61°F
Humidity
54%
Altimeter
30.11" Hg
Pressure
1019.62 hPa